Riverside, Rhode Island
Current Conditions -  °F | °C
As of 11:51 AM on Friday 19 Dec 2014 (Local Time) from KPVD Reporting Station
Overcast Overcast  
Wind Chill: 28°   Ceiling: 3200
Heat Index: 36°   Visibility: 10mi
Dew Point: 22°   Wind: 12mph
Humidity: 57%   Direction: 310°NW
Pressure: 29.96"   Gusts: NA
Location:  41.77°N, 71.37°W
Report Text: KPVD 191651Z 31010KT 10SM BKN032 OVC045 02/M06 A2996 RMK AO2 SLP145 T00221056
Loading
Personal Weather Stations






























Interactive Weather Map New forecast layout! Learn more

10-Day Weather Forecast

Advertisements
Track Severe Weather on mobile